Detroit, Michigan
Traffic Map
Current Weather Conditions
Detroit, Michigan
Scattered Clouds
Scattered Clouds
-4°
Feels Like: -11°
Wind Chill: -11° Ceiling: Unl
Heat Index: -4° Visibility: 15mi
Dew Point: -10° Wind: 16mph
Humidity: 64% Direction: 310° (NW)
Pressure: 29.96in Gusts: 0mph
Raw Report DataCYQG 271000Z 31014KT 15SM SCT058 M04/M10 A2996 RMK SC4 SLP151
Traffic Incident Summary
Active as of:
Severity:
Category:
InformationThere was an issue retrieving the traffic information for this location. Please try a different location or try again shortly.
Advertisements
Track Severe Weather on mobile